createdAt,value
2017-09-17T00:00:51.060Z,61.10
2017-09-17T00:03:24.753Z,61.30
2017-09-17T00:05:58.263Z,61.10
2017-09-17T00:08:31.871Z,60.90
2017-09-17T00:11:05.566Z,60.70
2017-09-17T00:13:39.146Z,60.80
2017-09-17T00:16:12.970Z,60.70
2017-09-17T00:18:46.714Z,61.00
2017-09-17T00:21:20.388Z,60.80
2017-09-17T00:23:54.490Z,60.40
2017-09-17T00:26:28.090Z,60.50
2017-09-17T00:29:01.583Z,60.40
2017-09-17T00:31:35.187Z,60.40
2017-09-17T00:34:08.796Z,60.40
2017-09-17T00:36:42.386Z,60.20
2017-09-17T00:39:15.994Z,60.10
2017-09-17T00:41:50.122Z,60.00
2017-09-17T00:44:23.703Z,59.80
2017-09-17T00:46:57.279Z,60.00
2017-09-17T00:49:30.871Z,59.90
2017-09-17T00:52:04.506Z,59.80
2017-09-17T00:54:38.071Z,59.90
2017-09-17T00:57:11.821Z,59.90
2017-09-17T00:59:45.479Z,59.70
2017-09-17T01:02:19.812Z,59.60
2017-09-17T01:04:53.337Z,59.60
2017-09-17T01:07:27.145Z,59.60
2017-09-17T01:10:00.581Z,59.40
2017-09-17T01:12:34.210Z,59.40
2017-09-17T01:15:07.846Z,59.50
2017-09-17T01:17:42.257Z,59.40
2017-09-17T01:20:15.745Z,59.40
2017-09-17T01:22:50.170Z,59.40
2017-09-17T01:25:23.770Z,59.40
2017-09-17T01:27:57.274Z,59.30
2017-09-17T01:30:31.183Z,59.20
2017-09-17T01:33:04.739Z,59.40
2017-09-17T01:35:38.378Z,59.30
2017-09-17T01:38:11.891Z,59.20
2017-09-17T01:40:45.358Z,59.10
2017-09-17T01:43:18.878Z,59.20
2017-09-17T01:45:52.557Z,59.30
2017-09-17T01:48:26.278Z,59.20
2017-09-17T01:51:00.557Z,59.10
2017-09-17T01:53:34.298Z,59.40
2017-09-17T01:56:07.912Z,59.60
2017-09-17T01:58:41.498Z,59.50
2017-09-17T02:01:15.265Z,59.80
2017-09-17T02:03:48.878Z,60.00
2017-09-17T02:06:23.326Z,60.20
2017-09-17T02:08:56.930Z,60.10
2017-09-17T02:11:30.506Z,60.00
2017-09-17T02:14:04.960Z,60.40
2017-09-17T02:16:38.504Z,60.50
2017-09-17T02:19:12.106Z,60.30
2017-09-17T02:21:45.962Z,60.10
2017-09-17T02:24:19.562Z,60.00
2017-09-17T02:26:53.258Z,59.80
2017-09-17T02:29:26.857Z,60.00
2017-09-17T02:32:00.650Z,60.20
2017-09-17T02:34:34.365Z,60.00
2017-09-17T02:37:07.954Z,60.10
2017-09-17T02:39:41.644Z,60.10
2017-09-17T02:42:15.250Z,60.00
2017-09-17T02:44:48.986Z,59.60
2017-09-17T02:47:22.678Z,59.70
2017-09-17T02:49:56.277Z,59.90
2017-09-17T02:52:29.845Z,60.00
2017-09-17T02:55:03.446Z,60.40
2017-09-17T02:57:37.061Z,60.50
2017-09-17T03:00:10.664Z,60.20
2017-09-17T03:02:44.242Z,60.40
2017-09-17T03:05:18.601Z,60.50
2017-09-17T03:07:52.298Z,60.50
2017-09-17T03:10:25.991Z,60.60
2017-09-17T03:12:59.636Z,60.70
2017-09-17T03:15:33.192Z,60.90
2017-09-17T03:18:06.810Z,60.70
2017-09-17T03:20:40.473Z,60.80
2017-09-17T03:23:14.024Z,61.00
2017-09-17T03:25:47.654Z,60.80
2017-09-17T03:28:22.241Z,61.00
2017-09-17T03:30:56.526Z,61.10
2017-09-17T03:33:30.266Z,61.00
2017-09-17T03:36:03.721Z,61.00
2017-09-17T03:38:38.167Z,61.10
2017-09-17T03:41:12.609Z,61.10
2017-09-17T03:43:47.132Z,61.30
2017-09-17T03:46:21.422Z,61.30
2017-09-17T03:48:55.153Z,61.50
2017-09-17T03:51:28.802Z,61.70
2017-09-17T03:54:02.456Z,61.70
2017-09-17T03:56:36.163Z,61.70
2017-09-17T03:59:09.794Z,62.10
2017-09-17T04:01:43.373Z,61.90
2017-09-17T04:04:17.155Z,62.20
2017-09-17T04:06:50.766Z,61.60
2017-09-17T04:09:24.367Z,62.40
2017-09-17T04:11:58.062Z,62.10
2017-09-17T04:14:31.766Z,62.10
2017-09-17T04:17:05.469Z,61.90
2017-09-17T04:19:39.269Z,62.30
2017-09-17T04:22:12.839Z,62.30
2017-09-17T04:24:46.426Z,62.20
2017-09-17T04:27:20.038Z,62.30
2017-09-17T04:29:53.701Z,62.50
2017-09-17T04:32:28.101Z,62.50
2017-09-17T04:35:01.604Z,62.30
2017-09-17T04:37:35.081Z,62.80
2017-09-17T04:40:08.698Z,62.80
2017-09-17T04:42:42.270Z,62.90
2017-09-17T04:45:15.905Z,63.70
2017-09-17T04:47:49.505Z,62.90
2017-09-17T04:50:23.197Z,63.00
2017-09-17T04:52:56.701Z,62.90
2017-09-17T04:55:30.402Z,62.80
2017-09-17T04:58:04.216Z,62.90
2017-09-17T05:00:37.701Z,62.80
2017-09-17T05:03:11.213Z,62.90
2017-09-17T05:05:45.622Z,62.90
2017-09-17T05:08:19.322Z,62.90
2017-09-17T05:10:53.653Z,62.70
2017-09-17T05:13:27.346Z,62.90
2017-09-17T05:16:01.649Z,62.80
2017-09-17T05:18:35.236Z,62.80
2017-09-17T05:21:08.937Z,62.70
2017-09-17T05:23:42.580Z,62.80
2017-09-17T05:26:16.954Z,62.70
2017-09-17T05:28:50.590Z,62.70
2017-09-17T05:31:24.091Z,62.80
2017-09-17T05:33:58.574Z,62.60
2017-09-17T05:36:32.178Z,62.60
2017-09-17T05:39:05.924Z,62.50
2017-09-17T05:41:39.561Z,62.70
2017-09-17T05:44:13.948Z,62.70
2017-09-17T05:46:47.430Z,62.70
2017-09-17T05:49:20.978Z,63.00
2017-09-17T05:51:54.626Z,63.20
2017-09-17T05:54:28.186Z,63.20
2017-09-17T05:57:01.744Z,63.40
2017-09-17T05:59:35.362Z,63.50
2017-09-17T06:02:09.048Z,63.40
2017-09-17T06:04:42.730Z,63.50
2017-09-17T06:07:16.958Z,63.40
2017-09-17T06:09:50.666Z,63.20
2017-09-17T06:12:24.126Z,63.50
2017-09-17T06:14:57.654Z,63.50
2017-09-17T06:17:31.262Z,63.40
2017-09-17T06:20:04.864Z,63.80
2017-09-17T06:22:38.453Z,63.70
2017-09-17T06:25:12.818Z,63.70
2017-09-17T06:27:46.579Z,64.00
2017-09-17T06:30:20.282Z,64.20
2017-09-17T06:32:53.853Z,64.10
2017-09-17T06:35:28.100Z,64.00
2017-09-17T06:38:01.778Z,64.00
2017-09-17T06:40:35.408Z,64.20
2017-09-17T06:43:09.214Z,64.20
2017-09-17T06:45:42.715Z,64.40
2017-09-17T06:48:16.802Z,64.20
2017-09-17T06:50:50.421Z,64.60
2017-09-17T06:53:23.974Z,64.70
2017-09-17T06:55:58.441Z,65.00
2017-09-17T06:58:32.049Z,65.00
2017-09-17T07:01:06.758Z,65.40
2017-09-17T07:03:40.279Z,65.30
2017-09-17T07:06:13.962Z,65.30
2017-09-17T07:08:47.734Z,65.40
2017-09-17T07:11:21.342Z,65.50
2017-09-17T07:13:55.643Z,65.80
2017-09-17T07:16:29.293Z,65.80
2017-09-17T07:19:03.714Z,65.90
2017-09-17T07:21:37.284Z,65.80
2017-09-17T07:24:10.823Z,65.80
2017-09-17T07:26:44.523Z,65.90
2017-09-17T07:29:19.042Z,65.40
2017-09-17T07:31:53.342Z,65.30
2017-09-17T07:34:27.038Z,65.30
2017-09-17T07:37:00.626Z,65.20
2017-09-17T07:39:34.222Z,65.00
2017-09-17T07:42:07.862Z,65.00
2017-09-17T07:44:41.582Z,65.40
2017-09-17T07:47:15.374Z,65.40
2017-09-17T07:49:49.810Z,65.50
2017-09-17T07:52:24.214Z,65.20
2017-09-17T07:54:57.913Z,65.20
2017-09-17T07:57:31.623Z,65.30
2017-09-17T08:00:06.042Z,64.90
2017-09-17T08:02:40.466Z,65.00
2017-09-17T08:05:15.010Z,65.00
2017-09-17T08:07:48.545Z,65.10
2017-09-17T08:10:22.386Z,64.80
2017-09-17T08:12:56.191Z,65.20
2017-09-17T08:15:29.805Z,65.40
2017-09-17T08:18:03.505Z,65.10
2017-09-17T08:20:37.086Z,65.40
2017-09-17T08:23:11.422Z,65.50
2017-09-17T08:25:44.978Z,65.40
2017-09-17T08:28:18.725Z,66.10
2017-09-17T08:30:52.318Z,65.70
2017-09-17T08:33:25.886Z,66.10
2017-09-17T08:35:59.521Z,65.60
2017-09-17T08:38:33.123Z,66.00
2017-09-17T08:41:07.281Z,66.00
2017-09-17T08:43:41.807Z,66.40
2017-09-17T08:46:15.542Z,65.30
2017-09-17T08:48:49.363Z,65.50
2017-09-17T08:51:22.946Z,65.40
2017-09-17T08:53:56.541Z,65.50
2017-09-17T08:56:30.169Z,65.30
2017-09-17T08:59:03.989Z,65.60
2017-09-17T09:01:37.654Z,65.90
2017-09-17T09:04:11.962Z,65.30
2017-09-17T09:06:45.617Z,65.20
2017-09-17T09:09:20.566Z,65.70
2017-09-17T09:11:54.198Z,65.40
2017-09-17T09:14:27.942Z,65.10
2017-09-17T09:17:01.667Z,65.50
2017-09-17T09:19:35.279Z,64.80
2017-09-17T09:22:08.746Z,65.10
2017-09-17T09:24:43.753Z,64.10
2017-09-17T09:27:17.686Z,64.10
2017-09-17T09:29:51.395Z,64.60
2017-09-17T09:32:24.990Z,64.50
2017-09-17T09:34:58.441Z,64.30
2017-09-17T09:37:33.421Z,63.80
2017-09-17T09:40:06.916Z,63.80
2017-09-17T09:42:40.422Z,64.60
2017-09-17T09:45:14.838Z,64.90
2017-09-17T09:47:48.593Z,65.40
2017-09-17T09:50:22.962Z,64.20
2017-09-17T09:52:56.766Z,64.10
2017-09-17T09:55:30.346Z,63.10
2017-09-17T09:58:04.754Z,63.20
2017-09-17T10:00:38.386Z,63.20
2017-09-17T10:03:11.951Z,63.10
2017-09-17T10:05:45.697Z,63.40
2017-09-17T10:08:20.413Z,62.70
2017-09-17T10:10:53.986Z,62.60
2017-09-17T10:13:27.722Z,62.80
2017-09-17T10:16:01.166Z,63.00
2017-09-17T10:18:35.326Z,62.20
2017-09-17T10:21:08.930Z,62.60
2017-09-17T10:23:42.470Z,62.50
2017-09-17T10:26:15.992Z,62.00
2017-09-17T10:28:49.526Z,62.10
2017-09-17T10:31:23.118Z,62.40
2017-09-17T10:33:57.671Z,61.60
2017-09-17T10:36:31.356Z,61.50
2017-09-17T10:39:05.043Z,60.30
2017-09-17T10:41:38.658Z,60.90
2017-09-17T10:44:12.135Z,60.90
2017-09-17T10:46:45.716Z,60.50
2017-09-17T10:49:19.307Z,61.00
2017-09-17T10:51:52.968Z,61.10
2017-09-17T10:54:27.466Z,61.30
2017-09-17T10:57:02.531Z,61.30
2017-09-17T10:59:36.944Z,61.40
2017-09-17T11:02:10.638Z,61.10
2017-09-17T11:04:44.457Z,61.00
2017-09-17T11:07:18.173Z,61.30
2017-09-17T11:09:51.689Z,62.10
2017-09-17T11:12:25.938Z,61.00
2017-09-17T11:14:59.573Z,60.90
2017-09-17T11:17:33.283Z,62.00
2017-09-17T11:20:06.971Z,61.40
2017-09-17T11:22:40.529Z,61.00
2017-09-17T11:25:14.181Z,61.40
2017-09-17T11:27:47.666Z,60.60
2017-09-17T11:30:21.484Z,59.90
2017-09-17T11:32:55.293Z,60.20
2017-09-17T11:35:28.895Z,61.20
2017-09-17T11:38:02.599Z,60.90
2017-09-17T11:40:36.154Z,60.40
2017-09-17T11:43:11.218Z,59.90
2017-09-17T11:45:45.247Z,59.90
2017-09-17T11:48:18.938Z,59.90
2017-09-17T11:50:52.535Z,59.80
2017-09-17T11:53:26.952Z,60.80
2017-09-17T11:56:00.628Z,60.80
2017-09-17T11:58:34.357Z,60.60
2017-09-17T12:01:08.582Z,60.50
2017-09-17T12:03:42.377Z,60.20
2017-09-17T12:06:16.068Z,60.00
2017-09-17T12:08:49.686Z,60.20
2017-09-17T12:11:23.241Z,59.50
2017-09-17T12:13:56.998Z,58.70
2017-09-17T12:16:31.406Z,59.60
2017-09-17T12:19:05.005Z,59.60
2017-09-17T12:21:38.517Z,59.50
2017-09-17T12:24:13.034Z,59.60
2017-09-17T12:26:47.358Z,59.50
2017-09-17T12:29:21.026Z,59.50
2017-09-17T12:31:54.623Z,59.00
2017-09-17T12:34:28.458Z,59.30
2017-09-17T12:37:02.165Z,60.10
2017-09-17T12:39:36.654Z,58.90
2017-09-17T12:42:10.226Z,58.80
2017-09-17T12:44:43.985Z,58.90
2017-09-17T12:47:17.559Z,58.40
2017-09-17T12:49:52.115Z,59.00
2017-09-17T12:52:25.798Z,58.90
2017-09-17T12:55:02.247Z,58.10
2017-09-17T12:57:35.766Z,57.60
2017-09-17T13:00:09.577Z,57.90
2017-09-17T13:02:43.254Z,58.70
2017-09-17T13:05:16.791Z,59.30
2017-09-17T13:07:50.334Z,58.60
2017-09-17T13:10:23.987Z,58.10
2017-09-17T13:12:59.026Z,59.20
2017-09-17T13:15:32.699Z,59.10
2017-09-17T13:18:06.328Z,57.70
2017-09-17T13:20:39.926Z,56.10
2017-09-17T13:23:14.099Z,56.90
2017-09-17T13:25:47.710Z,56.70
2017-09-17T13:28:21.270Z,57.10
2017-09-17T13:30:54.926Z,57.70
2017-09-17T13:33:29.058Z,57.00
2017-09-17T13:36:02.653Z,56.60
2017-09-17T13:38:36.106Z,56.40
2017-09-17T13:41:09.698Z,55.90
2017-09-17T13:43:43.264Z,55.80
2017-09-17T13:46:17.645Z,56.00
2017-09-17T13:48:51.319Z,56.00
2017-09-17T13:51:24.937Z,55.90
2017-09-17T13:53:59.466Z,55.70
2017-09-17T13:56:33.002Z,55.60
2017-09-17T13:59:06.508Z,55.70
2017-09-17T14:01:46.794Z,55.50
2017-09-17T14:04:20.291Z,55.10
2017-09-17T14:06:56.472Z,55.70
2017-09-17T14:09:32.558Z,55.80
2017-09-17T14:12:06.138Z,55.40
2017-09-17T14:14:39.678Z,56.00
2017-09-17T14:17:13.358Z,56.30
2017-09-17T14:19:46.930Z,55.90
2017-09-17T14:22:20.562Z,56.70
2017-09-17T14:24:54.150Z,56.60
2017-09-17T14:27:27.821Z,56.90
2017-09-17T14:30:01.350Z,56.60
2017-09-17T14:32:34.847Z,56.80
2017-09-17T14:35:08.358Z,56.80
2017-09-17T14:37:41.882Z,57.00
2017-09-17T14:40:16.199Z,57.10
2017-09-17T14:42:49.903Z,57.10
2017-09-17T14:45:23.465Z,56.70
2017-09-17T14:47:57.131Z,57.40
2017-09-17T14:50:30.702Z,57.30
2017-09-17T14:53:05.090Z,57.40
2017-09-17T14:55:38.826Z,57.30
2017-09-17T14:58:13.554Z,57.80
2017-09-17T15:00:47.157Z,57.80
2017-09-17T15:03:20.756Z,57.90
2017-09-17T15:05:54.609Z,57.80
2017-09-17T15:08:28.359Z,57.40
2017-09-17T15:11:02.019Z,57.20
2017-09-17T15:13:35.661Z,56.50
2017-09-17T15:16:09.262Z,57.60
2017-09-17T15:18:42.862Z,57.00
2017-09-17T15:21:17.065Z,56.20
2017-09-17T15:23:50.795Z,56.20
2017-09-17T15:26:24.586Z,56.10
2017-09-17T15:28:59.051Z,56.20
2017-09-17T15:31:32.598Z,56.10
2017-09-17T15:34:06.175Z,56.50
2017-09-17T15:36:39.778Z,56.50
2017-09-17T15:39:13.380Z,56.90
2017-09-17T15:41:47.403Z,57.20
2017-09-17T15:44:20.922Z,57.20
2017-09-17T15:46:54.525Z,57.30
2017-09-17T15:49:28.190Z,57.50
2017-09-17T15:52:01.927Z,58.00
2017-09-17T15:54:36.242Z,58.70
2017-09-17T15:57:10.661Z,58.80
2017-09-17T15:59:44.262Z,58.80
2017-09-17T16:02:18.066Z,58.40
2017-09-17T16:04:52.087Z,58.00
2017-09-17T16:07:25.841Z,58.30
2017-09-17T16:09:59.397Z,58.40
2017-09-17T16:12:33.082Z,57.90
2017-09-17T16:15:06.789Z,58.00
2017-09-17T16:17:40.689Z,57.80
2017-09-17T16:20:14.503Z,58.00
2017-09-17T16:22:48.010Z,59.00
2017-09-17T16:25:21.630Z,58.50
2017-09-17T16:27:55.267Z,58.30
2017-09-17T16:30:29.618Z,58.20
2017-09-17T16:33:03.429Z,58.20
2017-09-17T16:35:36.984Z,58.30
2017-09-17T16:38:10.633Z,58.50
2017-09-17T16:40:44.351Z,58.40
2017-09-17T16:43:17.818Z,58.30
2017-09-17T16:45:51.727Z,58.20
2017-09-17T16:48:26.173Z,58.30
2017-09-17T16:50:59.726Z,58.30
2017-09-17T16:53:34.174Z,59.10
2017-09-17T16:56:07.670Z,59.10
2017-09-17T16:58:42.092Z,59.00
2017-09-17T17:01:15.922Z,59.00
2017-09-17T17:03:49.468Z,59.00
2017-09-17T17:06:23.795Z,59.80
2017-09-17T17:08:58.215Z,60.20
2017-09-17T17:11:32.059Z,59.80
2017-09-17T17:14:06.072Z,59.80
2017-09-17T17:16:40.496Z,60.20
2017-09-17T17:19:14.192Z,60.10
2017-09-17T17:21:47.770Z,60.10
2017-09-17T17:24:21.386Z,60.10
2017-09-17T17:26:55.094Z,60.20
2017-09-17T17:29:28.645Z,60.60
2017-09-17T17:32:02.392Z,60.50
2017-09-17T17:34:36.037Z,60.60
2017-09-17T17:37:09.806Z,60.70
2017-09-17T17:39:43.471Z,61.30
2017-09-17T17:42:17.117Z,61.40
2017-09-17T17:44:51.437Z,61.70
2017-09-17T17:47:26.695Z,61.70
2017-09-17T17:50:00.368Z,61.90
2017-09-17T17:52:34.071Z,61.80
2017-09-17T17:55:07.870Z,62.00
2017-09-17T17:57:43.013Z,62.00
2017-09-17T18:00:16.586Z,62.00
2017-09-17T18:02:50.068Z,62.00
2017-09-17T18:05:23.819Z,62.10
2017-09-17T18:07:58.314Z,62.30
2017-09-17T18:10:31.914Z,62.30
2017-09-17T18:13:05.545Z,62.20
2017-09-17T18:15:39.018Z,62.20
2017-09-17T18:18:12.726Z,62.10
2017-09-17T18:20:46.294Z,62.10
2017-09-17T18:23:21.330Z,62.30
2017-09-17T18:25:56.217Z,62.30
2017-09-17T18:28:30.052Z,62.30
2017-09-17T18:31:03.812Z,62.10
2017-09-17T18:33:37.379Z,62.10
2017-09-17T18:36:11.726Z,62.00
2017-09-17T18:38:46.132Z,61.90
2017-09-17T18:41:20.024Z,61.80
2017-09-17T18:43:54.561Z,61.50
2017-09-17T18:46:28.186Z,61.50
2017-09-17T18:49:01.670Z,61.70
2017-09-17T18:51:35.373Z,61.50
2017-09-17T18:54:08.987Z,61.60
2017-09-17T18:56:42.477Z,61.60
2017-09-17T18:59:16.085Z,61.90
2017-09-17T19:01:49.582Z,61.70
2017-09-17T19:04:23.366Z,61.60
2017-09-17T19:06:56.991Z,61.70
2017-09-17T19:09:30.578Z,61.50
2017-09-17T19:12:04.142Z,61.40
2017-09-17T19:14:37.794Z,61.10
2017-09-17T19:17:11.503Z,61.30
2017-09-17T19:19:45.222Z,61.50
2017-09-17T19:22:22.957Z,61.50
2017-09-17T19:24:56.818Z,61.60
2017-09-17T19:27:31.441Z,61.40
2017-09-17T19:30:05.028Z,61.30
2017-09-17T19:32:38.635Z,61.10
2017-09-17T19:35:15.014Z,61.00
2017-09-17T19:37:49.504Z,61.20
2017-09-17T19:40:23.186Z,61.20
2017-09-17T19:42:56.723Z,60.90
2017-09-17T19:45:30.318Z,61.10
2017-09-17T19:48:03.862Z,60.90
2017-09-17T19:50:37.513Z,60.90
2017-09-17T19:53:11.322Z,61.20
2017-09-17T19:55:44.930Z,61.10
2017-09-17T19:58:18.634Z,60.90
2017-09-17T20:00:52.982Z,60.60
2017-09-17T20:03:26.554Z,60.70
2017-09-17T20:06:00.202Z,60.90
2017-09-17T20:08:33.849Z,60.60
2017-09-17T20:11:07.350Z,60.70
2017-09-17T20:13:40.986Z,60.70
2017-09-17T20:16:14.650Z,60.60
2017-09-17T20:18:48.223Z,60.80
2017-09-17T20:21:21.750Z,60.50
2017-09-17T20:23:55.245Z,60.40
2017-09-17T20:26:28.851Z,60.50
2017-09-17T20:29:02.554Z,60.40
2017-09-17T20:31:36.163Z,60.00
2017-09-17T20:34:09.761Z,60.00
2017-09-17T20:36:43.358Z,60.20
2017-09-17T20:39:17.474Z,60.30
2017-09-17T20:41:51.148Z,60.10
2017-09-17T20:44:24.788Z,60.10
2017-09-17T20:46:58.274Z,60.00
2017-09-17T20:49:32.694Z,59.90
2017-09-17T20:52:06.286Z,59.70
2017-09-17T20:54:40.030Z,59.80
2017-09-17T20:57:13.797Z,59.70
2017-09-17T20:59:47.599Z,59.70
2017-09-17T21:02:21.270Z,59.80
2017-09-17T21:04:54.906Z,59.80
2017-09-17T21:07:28.506Z,59.70
2017-09-17T21:10:02.030Z,59.80
2017-09-17T21:12:35.658Z,59.60
2017-09-17T21:15:09.219Z,59.60
2017-09-17T21:17:42.770Z,59.50
2017-09-17T21:20:16.310Z,59.50
2017-09-17T21:22:50.114Z,59.40
2017-09-17T21:25:23.817Z,59.40
2017-09-17T21:27:57.426Z,59.50
2017-09-17T21:30:30.915Z,59.40
2017-09-17T21:33:04.594Z,59.40
2017-09-17T21:35:38.247Z,59.40
2017-09-17T21:38:12.610Z,59.00
2017-09-17T21:40:49.873Z,59.00
2017-09-17T21:43:24.353Z,59.10
2017-09-17T21:45:58.022Z,59.10
2017-09-17T21:48:31.853Z,58.90
2017-09-17T21:51:05.462Z,59.10
2017-09-17T21:53:39.042Z,59.00
2017-09-17T21:56:12.546Z,59.00
2017-09-17T21:58:46.258Z,58.90
2017-09-17T22:01:19.866Z,59.00
2017-09-17T22:03:53.667Z,59.10
2017-09-17T22:06:27.696Z,58.90
2017-09-17T22:09:01.382Z,58.70
2017-09-17T22:11:34.862Z,58.90
2017-09-17T22:14:08.447Z,58.90
2017-09-17T22:16:42.061Z,59.00
2017-09-17T22:19:17.186Z,59.00
2017-09-17T22:21:50.918Z,58.90
2017-09-17T22:24:24.630Z,58.80
2017-09-17T22:26:58.079Z,58.60
2017-09-17T22:29:32.438Z,58.60
2017-09-17T22:32:06.148Z,58.60
2017-09-17T22:34:40.164Z,58.80
2017-09-17T22:37:14.019Z,58.90
2017-09-17T22:39:47.883Z,59.00
2017-09-17T22:42:22.290Z,58.90
2017-09-17T22:44:55.891Z,58.80
2017-09-17T22:47:29.697Z,59.00
2017-09-17T22:50:06.307Z,58.70
2017-09-17T22:52:40.042Z,58.70
2017-09-17T22:55:13.506Z,59.00
2017-09-17T22:57:47.265Z,58.80
2017-09-17T23:00:20.866Z,58.60
2017-09-17T23:02:54.674Z,58.50
2017-09-17T23:05:28.385Z,58.50
2017-09-17T23:08:02.087Z,58.60
2017-09-17T23:10:35.682Z,58.60
2017-09-17T23:13:09.285Z,58.60
2017-09-17T23:15:42.882Z,58.60
2017-09-17T23:18:16.486Z,58.60
2017-09-17T23:20:49.997Z,58.70
2017-09-17T23:23:23.903Z,58.80
2017-09-17T23:25:57.494Z,58.80
2017-09-17T23:28:32.015Z,58.80
2017-09-17T23:31:06.518Z,58.80
2017-09-17T23:33:40.221Z,58.80
2017-09-17T23:36:13.801Z,58.70
2017-09-17T23:38:47.513Z,58.50
2017-09-17T23:41:21.254Z,58.40
2017-09-17T23:43:56.321Z,58.40
2017-09-17T23:46:29.982Z,58.40
2017-09-17T23:49:04.216Z,58.40
2017-09-17T23:51:37.600Z,58.40
2017-09-17T23:54:11.270Z,58.30
2017-09-17T23:56:44.905Z,58.30
2017-09-17T23:59:18.395Z,58.50
